sensor_id;sensor_type;location;lat;lon;timestamp;temperature;humidity
70214;DHT22;60138;55.808;37.078;2023-02-01T00:00:05;2.07;72.75
70214;DHT22;60138;55.808;37.078;2023-02-01T00:02:41;2.09;72.77
70214;DHT22;60138;55.808;37.078;2023-02-01T00:05:14;2.09;72.77
70214;DHT22;60138;55.808;37.078;2023-02-01T00:07:47;2.12;72.84
70214;DHT22;60138;55.808;37.078;2023-02-01T00:10:22;2.13;72.87
70214;DHT22;60138;55.808;37.078;2023-02-01T00:13:01;2.11;72.99
70214;DHT22;60138;55.808;37.078;2023-02-01T00:15:40;2.10;73.09
70214;DHT22;60138;55.808;37.078;2023-02-01T00:18:23;2.08;73.23
70214;DHT22;60138;55.808;37.078;2023-02-01T00:20:51;2.08;73.25
70214;DHT22;60138;55.808;37.078;2023-02-01T00:23:25;2.09;73.28
70214;DHT22;60138;55.808;37.078;2023-02-01T00:25:51;2.08;73.32
70214;DHT22;60138;55.808;37.078;2023-02-01T00:28:36;2.05;73.36
70214;DHT22;60138;55.808;37.078;2023-02-01T00:31:16;2.05;73.38
70214;DHT22;60138;55.808;37.078;2023-02-01T00:34:01;2.07;73.44
70214;DHT22;60138;55.808;37.078;2023-02-01T00:36:32;2.09;73.41
70214;DHT22;60138;55.808;37.078;2023-02-01T00:39:21;2.10;73.41
70214;DHT22;60138;55.808;37.078;2023-02-01T00:41:49;2.12;73.36
70214;DHT22;60138;55.808;37.078;2023-02-01T00:44:18;2.13;73.34
70214;DHT22;60138;55.808;37.078;2023-02-01T00:47:02;2.13;73.41
70214;DHT22;60138;55.808;37.078;2023-02-01T00:49:45;2.14;73.28
70214;DHT22;60138;55.808;37.078;2023-02-01T00:52:11;2.15;73.19
70214;DHT22;60138;55.808;37.078;2023-02-01T00:54:48;2.15;73.20
70214;DHT22;60138;55.808;37.078;2023-02-01T00:57:33;2.17;73.24
70214;DHT22;60138;55.808;37.078;2023-02-01T01:00:12;2.19;73.08
70214;DHT22;60138;55.808;37.078;2023-02-01T01:02:41;2.19;73.10
70214;DHT22;60138;55.808;37.078;2023-02-01T01:05:09;2.19;73.07
70214;DHT22;60138;55.808;37.078;2023-02-01T01:07:36;2.19;72.99
70214;DHT22;60138;55.808;37.078;2023-02-01T01:10:12;2.17;72.96
70214;DHT22;60138;55.808;37.078;2023-02-01T01:12:38;2.19;72.99
70214;DHT22;60138;55.808;37.078;2023-02-01T01:15:19;2.20;73.01
70214;DHT22;60138;55.808;37.078;2023-02-01T01:17:44;2.19;72.93
70214;DHT22;60138;55.808;37.078;2023-02-01T01:20:11;2.20;72.99
70214;DHT22;60138;55.808;37.078;2023-02-01T01:22:39;2.21;72.99
70214;DHT22;60138;55.808;37.078;2023-02-01T01:25:14;2.24;72.92
70214;DHT22;60138;55.808;37.078;2023-02-01T01:27:43;2.23;72.93
70214;DHT22;60138;55.808;37.078;2023-02-01T01:30:09;2.23;72.93
70214;DHT22;60138;55.808;37.078;2023-02-01T01:32:40;2.25;72.93
70214;DHT22;60138;55.808;37.078;2023-02-01T01:35:08;2.26;72.90
70214;DHT22;60138;55.808;37.078;2023-02-01T01:37:37;2.26;72.90
70214;DHT22;60138;55.808;37.078;2023-02-01T01:40:13;2.26;72.90
70214;DHT22;60138;55.808;37.078;2023-02-01T01:42:43;2.28;72.86
70214;DHT22;60138;55.808;37.078;2023-02-01T01:45:29;2.27;72.86
70214;DHT22;60138;55.808;37.078;2023-02-01T01:48:17;2.28;72.80
70214;DHT22;60138;55.808;37.078;2023-02-01T01:51:00;2.24;72.71
70214;DHT22;60138;55.808;37.078;2023-02-01T01:53:36;2.24;72.82
70214;DHT22;60138;55.808;37.078;2023-02-01T01:56:04;2.26;72.83
70214;DHT22;60138;55.808;37.078;2023-02-01T01:58:33;2.24;72.74
70214;DHT22;60138;55.808;37.078;2023-02-01T02:01:11;2.24;72.70
70214;DHT22;60138;55.808;37.078;2023-02-01T02:03:42;2.23;72.74
70214;DHT22;60138;55.808;37.078;2023-02-01T02:06:45;2.23;72.75
70214;DHT22;60138;55.808;37.078;2023-02-01T02:09:14;2.21;72.64
70214;DHT22;60138;55.808;37.078;2023-02-01T02:11:40;2.16;72.67
70214;DHT22;60138;55.808;37.078;2023-02-01T02:14:09;2.19;72.75
70214;DHT22;60138;55.808;37.078;2023-02-01T02:20:00;2.17;72.74
70214;DHT22;60138;55.808;37.078;2023-02-01T02:34:37;2.15;72.64
70214;DHT22;60138;55.808;37.078;2023-02-01T02:45:08;2.12;72.64
70214;DHT22;60138;55.808;37.078;2023-02-01T02:50:35;2.16;72.60
70214;DHT22;60138;55.808;37.078;2023-02-01T02:53:18;2.15;72.54
70214;DHT22;60138;55.808;37.078;2023-02-01T02:55:45;2.19;72.57
70214;DHT22;60138;55.808;37.078;2023-02-01T02:58:15;2.19;72.45
70214;DHT22;60138;55.808;37.078;2023-02-01T03:00:44;2.17;72.49
70214;DHT22;60138;55.808;37.078;2023-02-01T03:03:10;2.20;72.50
70214;DHT22;60138;55.808;37.078;2023-02-01T03:05:43;2.21;72.42
70214;DHT22;60138;55.808;37.078;2023-02-01T03:08:18;2.24;72.44
70214;DHT22;60138;55.808;37.078;2023-02-01T03:11:07;2.24;72.37
70214;DHT22;60138;55.808;37.078;2023-02-01T03:13:52;2.24;72.39
70214;DHT22;60138;55.808;37.078;2023-02-01T03:16:32;2.22;72.28
70214;DHT22;60138;55.808;37.078;2023-02-01T03:19:06;2.20;72.29
70214;DHT22;60138;55.808;37.078;2023-02-01T03:21:43;2.13;72.14
70214;DHT22;60138;55.808;37.078;2023-02-01T03:26:51;2.05;72.17
70214;DHT22;60138;55.808;37.078;2023-02-01T03:29:34;2.03;72.22
70214;DHT22;60138;55.808;37.078;2023-02-01T03:32:36;2.05;72.27
70214;DHT22;60138;55.808;37.078;2023-02-01T03:35:07;2.05;72.29
70214;DHT22;60138;55.808;37.078;2023-02-01T03:37:35;2.06;72.27
70214;DHT22;60138;55.808;37.078;2023-02-01T03:40:08;2.09;72.35
70214;DHT22;60138;55.808;37.078;2023-02-01T03:42:59;2.10;72.34
70214;DHT22;60138;55.808;37.078;2023-02-01T03:45:37;2.11;72.40
70214;DHT22;60138;55.808;37.078;2023-02-01T03:48:04;2.12;72.36
70214;DHT22;60138;55.808;37.078;2023-02-01T03:50:35;2.12;72.41
70214;DHT22;60138;55.808;37.078;2023-02-01T03:53:11;2.13;72.36
70214;DHT22;60138;55.808;37.078;2023-02-01T03:55:47;2.15;72.38
70214;DHT22;60138;55.808;37.078;2023-02-01T03:58:18;2.14;72.35
70214;DHT22;60138;55.808;37.078;2023-02-01T04:00:57;2.15;72.35
70214;DHT22;60138;55.808;37.078;2023-02-01T04:03:26;2.13;72.36
70214;DHT22;60138;55.808;37.078;2023-02-01T04:05:53;2.12;72.37
70214;DHT22;60138;55.808;37.078;2023-02-01T04:08:32;2.13;72.43
70214;DHT22;60138;55.808;37.078;2023-02-01T04:11:07;2.12;72.36
70214;DHT22;60138;55.808;37.078;2023-02-01T04:13:35;2.12;72.36
70214;DHT22;60138;55.808;37.078;2023-02-01T04:16:08;2.12;72.41
70214;DHT22;60138;55.808;37.078;2023-02-01T04:18:39;2.13;72.42
70214;DHT22;60138;55.808;37.078;2023-02-01T04:21:05;2.11;72.35
70214;DHT22;60138;55.808;37.078;2023-02-01T04:23:31;2.07;72.40
70214;DHT22;60138;55.808;37.078;2023-02-01T04:26:04;2.09;72.44
70214;DHT22;60138;55.808;37.078;2023-02-01T04:28:30;2.11;72.48
70214;DHT22;60138;55.808;37.078;2023-02-01T04:30:56;2.11;72.43
70214;DHT22;60138;55.808;37.078;2023-02-01T04:33:32;2.12;72.38
70214;DHT22;60138;55.808;37.078;2023-02-01T04:36:00;2.10;72.41
70214;DHT22;60138;55.808;37.078;2023-02-01T04:38:26;2.10;72.40
70214;DHT22;60138;55.808;37.078;2023-02-01T04:40:54;2.12;72.45
70214;DHT22;60138;55.808;37.078;2023-02-01T04:46:41;2.12;72.40
70214;DHT22;60138;55.808;37.078;2023-02-01T04:49:10;2.10;72.40
70214;DHT22;60138;55.808;37.078;2023-02-01T04:51:39;2.10;72.48
70214;DHT22;60138;55.808;37.078;2023-02-01T04:54:04;2.11;72.50
70214;DHT22;60138;55.808;37.078;2023-02-01T04:56:53;2.11;72.48
70214;DHT22;60138;55.808;37.078;2023-02-01T04:59:22;2.11;72.45
70214;DHT22;60138;55.808;37.078;2023-02-01T05:01:47;2.13;72.46
70214;DHT22;60138;55.808;37.078;2023-02-01T05:04:13;2.15;72.49
70214;DHT22;60138;55.808;37.078;2023-02-01T05:06:44;2.17;72.46
70214;DHT22;60138;55.808;37.078;2023-02-01T05:09:13;2.19;72.46
70214;DHT22;60138;55.808;37.078;2023-02-01T05:11:40;2.19;72.44
70214;DHT22;60138;55.808;37.078;2023-02-01T05:14:09;2.21;72.41
70214;DHT22;60138;55.808;37.078;2023-02-01T05:16:35;2.21;72.36
70214;DHT22;60138;55.808;37.078;2023-02-01T05:19:03;2.22;72.35
70214;DHT22;60138;55.808;37.078;2023-02-01T05:21:31;2.22;72.33
70214;DHT22;60138;55.808;37.078;2023-02-01T05:23:57;2.22;72.40
70214;DHT22;60138;55.808;37.078;2023-02-01T05:26:31;2.22;72.39
70214;DHT22;60138;55.808;37.078;2023-02-01T05:28:57;2.21;72.38
70214;DHT22;60138;55.808;37.078;2023-02-01T05:31:25;2.19;72.40
70214;DHT22;60138;55.808;37.078;2023-02-01T05:33:51;2.19;72.35
70214;DHT22;60138;55.808;37.078;2023-02-01T05:36:24;2.21;72.41
70214;DHT22;60138;55.808;37.078;2023-02-01T05:38:55;2.21;72.38
70214;DHT22;60138;55.808;37.078;2023-02-01T05:41:23;2.22;72.37
70214;DHT22;60138;55.808;37.078;2023-02-01T05:44:00;2.22;72.35
70214;DHT22;60138;55.808;37.078;2023-02-01T05:46:38;2.22;72.35
70214;DHT22;60138;55.808;37.078;2023-02-01T05:49:07;2.21;72.38
70214;DHT22;60138;55.808;37.078;2023-02-01T05:51:36;2.20;72.38
70214;DHT22;60138;55.808;37.078;2023-02-01T05:54:04;2.22;72.39
70214;DHT22;60138;55.808;37.078;2023-02-01T05:56:30;2.22;72.38
70214;DHT22;60138;55.808;37.078;2023-02-01T05:58:59;2.22;72.34
70214;DHT22;60138;55.808;37.078;2023-02-01T06:01:24;2.22;72.45
70214;DHT22;60138;55.808;37.078;2023-02-01T06:03:51;2.25;72.38
70214;DHT22;60138;55.808;37.078;2023-02-01T06:06:19;2.24;72.45
70214;DHT22;60138;55.808;37.078;2023-02-01T06:08:52;2.26;72.45
70214;DHT22;60138;55.808;37.078;2023-02-01T06:11:31;2.30;72.47
70214;DHT22;60138;55.808;37.078;2023-02-01T06:13:59;2.34;72.40
70214;DHT22;60138;55.808;37.078;2023-02-01T06:16:39;2.36;72.41
70214;DHT22;60138;55.808;37.078;2023-02-01T06:19:23;2.39;72.41
70214;DHT22;60138;55.808;37.078;2023-02-01T06:21:53;2.39;72.35
70214;DHT22;60138;55.808;37.078;2023-02-01T06:24:21;2.43;72.33
70214;DHT22;60138;55.808;37.078;2023-02-01T06:26:47;2.46;72.38
70214;DHT22;60138;55.808;37.078;2023-02-01T06:29:20;2.50;72.25
70214;DHT22;60138;55.808;37.078;2023-02-01T06:31:51;2.51;72.21
70214;DHT22;60138;55.808;37.078;2023-02-01T06:34:28;2.53;72.11
70214;DHT22;60138;55.808;37.078;2023-02-01T06:37:21;2.51;72.06
70214;DHT22;60138;55.808;37.078;2023-02-01T06:40:05;2.52;72.06
70214;DHT22;60138;55.808;37.078;2023-02-01T06:42:48;2.50;71.97
70214;DHT22;60138;55.808;37.078;2023-02-01T06:45:18;2.50;72.02
70214;DHT22;60138;55.808;37.078;2023-02-01T06:47:44;2.51;72.03
70214;DHT22;60138;55.808;37.078;2023-02-01T06:50:20;2.51;72.03
70214;DHT22;60138;55.808;37.078;2023-02-01T06:52:58;2.52;72.00
70214;DHT22;60138;55.808;37.078;2023-02-01T06:55:47;2.56;72.00
70214;DHT22;60138;55.808;37.078;2023-02-01T06:58:33;2.57;71.87
70214;DHT22;60138;55.808;37.078;2023-02-01T07:01:09;2.59;71.91
70214;DHT22;60138;55.808;37.078;2023-02-01T07:03:38;2.61;71.90
70214;DHT22;60138;55.808;37.078;2023-02-01T07:06:06;2.67;71.87
70214;DHT22;60138;55.808;37.078;2023-02-01T07:08:45;2.72;71.84
70214;DHT22;60138;55.808;37.078;2023-02-01T07:11:18;2.75;71.77
70214;DHT22;60138;55.808;37.078;2023-02-01T07:13:49;2.79;71.68
70214;DHT22;60138;55.808;37.078;2023-02-01T07:16:18;2.81;71.57
70214;DHT22;60138;55.808;37.078;2023-02-01T07:18:45;2.83;71.58
70214;DHT22;60138;55.808;37.078;2023-02-01T07:21:14;2.84;71.38
70214;DHT22;60138;55.808;37.078;2023-02-01T07:23:54;2.83;71.33
70214;DHT22;60138;55.808;37.078;2023-02-01T07:26:28;2.84;71.32
70214;DHT22;60138;55.808;37.078;2023-02-01T07:29:11;2.84;71.24
70214;DHT22;60138;55.808;37.078;2023-02-01T07:32:00;2.84;71.26
70214;DHT22;60138;55.808;37.078;2023-02-01T07:34:59;2.83;71.24
70214;DHT22;60138;55.808;37.078;2023-02-01T07:37:50;2.83;71.16
70214;DHT22;60138;55.808;37.078;2023-02-01T07:40:18;2.84;71.18
70214;DHT22;60138;55.808;37.078;2023-02-01T07:42:44;2.82;70.99
70214;DHT22;60138;55.808;37.078;2023-02-01T07:45:20;2.82;71.06
70214;DHT22;60138;55.808;37.078;2023-02-01T07:47:51;2.82;71.07
70214;DHT22;60138;55.808;37.078;2023-02-01T07:50:20;2.81;70.97
70214;DHT22;60138;55.808;37.078;2023-02-01T07:52:48;2.83;70.99
70214;DHT22;60138;55.808;37.078;2023-02-01T07:55:17;2.87;71.03
70214;DHT22;60138;55.808;37.078;2023-02-01T07:57:45;2.94;70.87
70214;DHT22;60138;55.808;37.078;2023-02-01T08:00:11;2.96;70.80
70214;DHT22;60138;55.808;37.078;2023-02-01T08:02:45;3.02;70.85
70214;DHT22;60138;55.808;37.078;2023-02-01T08:05:23;3.01;70.66
70214;DHT22;60138;55.808;37.078;2023-02-01T08:07:58;3.03;70.64
70214;DHT22;60138;55.808;37.078;2023-02-01T08:10:31;3.10;70.61
70214;DHT22;60138;55.808;37.078;2023-02-01T08:13:07;3.11;70.35
70214;DHT22;60138;55.808;37.078;2023-02-01T08:15:45;3.09;70.29
70214;DHT22;60138;55.808;37.078;2023-02-01T08:18:10;3.09;70.26
70214;DHT22;60138;55.808;37.078;2023-02-01T08:20:36;3.08;70.13
70214;DHT22;60138;55.808;37.078;2023-02-01T08:23:07;3.10;70.18
70214;DHT22;60138;55.808;37.078;2023-02-01T08:25:33;3.13;70.19
70214;DHT22;60138;55.808;37.078;2023-02-01T08:28:05;3.13;70.10
70214;DHT22;60138;55.808;37.078;2023-02-01T08:30:36;3.19;69.91
70214;DHT22;60138;55.808;37.078;2023-02-01T08:33:02;3.23;69.55
70214;DHT22;60138;55.808;37.078;2023-02-01T08:35:38;3.27;69.57
70214;DHT22;60138;55.808;37.078;2023-02-01T08:38:04;3.32;69.68
70214;DHT22;60138;55.808;37.078;2023-02-01T08:40:33;3.31;69.52
70214;DHT22;60138;55.808;37.078;2023-02-01T08:43:24;3.41;69.50
70214;DHT22;60138;55.808;37.078;2023-02-01T08:46:03;3.45;69.16
70214;DHT22;60138;55.808;37.078;2023-02-01T08:48:49;3.48;69.15
70214;DHT22;60138;55.808;37.078;2023-02-01T08:51:23;3.52;69.06
70214;DHT22;60138;55.808;37.078;2023-02-01T08:53:52;3.47;68.27
70214;DHT22;60138;55.808;37.078;2023-02-01T08:56:23;3.47;68.12
70214;DHT22;60138;55.808;37.078;2023-02-01T08:58:51;3.47;68.15
70214;DHT22;60138;55.808;37.078;2023-02-01T09:01:19;3.53;68.49
70214;DHT22;60138;55.808;37.078;2023-02-01T09:03:48;3.61;68.39
70214;DHT22;60138;55.808;37.078;2023-02-01T09:06:14;3.68;68.12
70214;DHT22;60138;55.808;37.078;2023-02-01T09:08:45;3.72;67.82
70214;DHT22;60138;55.808;37.078;2023-02-01T09:11:13;3.72;67.35
70214;DHT22;60138;55.808;37.078;2023-02-01T09:13:51;3.69;67.55
70214;DHT22;60138;55.808;37.078;2023-02-01T09:16:37;3.64;67.20
70214;DHT22;60138;55.808;37.078;2023-02-01T09:19:03;3.58;67.44
70214;DHT22;60138;55.808;37.078;2023-02-01T09:21:36;3.57;67.65
70214;DHT22;60138;55.808;37.078;2023-02-01T09:24:27;3.67;67.60
70214;DHT22;60138;55.808;37.078;2023-02-01T09:26:55;3.70;67.49
70214;DHT22;60138;55.808;37.078;2023-02-01T09:29:23;3.71;67.65
70214;DHT22;60138;55.808;37.078;2023-02-01T09:31:52;3.76;67.72
70214;DHT22;60138;55.808;37.078;2023-02-01T09:34:20;3.86;67.59
70214;DHT22;60138;55.808;37.078;2023-02-01T09:36:48;3.90;67.46
70214;DHT22;60138;55.808;37.078;2023-02-01T09:39:24;3.93;67.43
70214;DHT22;60138;55.808;37.078;2023-02-01T09:47:35;3.98;66.97
70214;DHT22;60138;55.808;37.078;2023-02-01T09:50:05;3.95;66.64
70214;DHT22;60138;55.808;37.078;2023-02-01T09:55:11;3.80;66.48
70214;DHT22;60138;55.808;37.078;2023-02-01T09:58:03;3.85;66.69
70214;DHT22;60138;55.808;37.078;2023-02-01T10:00:38;3.82;66.72
70214;DHT22;60138;55.808;37.078;2023-02-01T10:03:11;3.72;66.77
70214;DHT22;60138;55.808;37.078;2023-02-01T10:17:04;3.86;66.57
70214;DHT22;60138;55.808;37.078;2023-02-01T10:22:18;3.90;66.75
70214;DHT22;60138;55.808;37.078;2023-02-01T10:27:41;3.89;66.59
70214;DHT22;60138;55.808;37.078;2023-02-01T10:30:23;3.95;66.59
70214;DHT22;60138;55.808;37.078;2023-02-01T10:32:54;4.02;66.61
70214;DHT22;60138;55.808;37.078;2023-02-01T10:35:34;3.99;66.54
70214;DHT22;60138;55.808;37.078;2023-02-01T10:38:07;3.95;66.50
70214;DHT22;60138;55.808;37.078;2023-02-01T10:40:37;3.93;66.46
70214;DHT22;60138;55.808;37.078;2023-02-01T10:43:09;3.97;66.60
70214;DHT22;60138;55.808;37.078;2023-02-01T10:45:37;4.03;66.51
70214;DHT22;60138;55.808;37.078;2023-02-01T10:48:03;4.04;66.53
70214;DHT22;60138;55.808;37.078;2023-02-01T10:51:00;4.01;66.24
70214;DHT22;60138;55.808;37.078;2023-02-01T10:53:44;3.93;65.55
70214;DHT22;60138;55.808;37.078;2023-02-01T10:56:27;3.84;65.49
70214;DHT22;60138;55.808;37.078;2023-02-01T10:59:04;3.76;65.59
70214;DHT22;60138;55.808;37.078;2023-02-01T11:02:01;3.74;65.85
70214;DHT22;60138;55.808;37.078;2023-02-01T11:04:33;3.74;66.30
70214;DHT22;60138;55.808;37.078;2023-02-01T11:07:13;3.76;65.66
70214;DHT22;60138;55.808;37.078;2023-02-01T11:09:50;3.76;66.09
70214;DHT22;60138;55.808;37.078;2023-02-01T11:12:32;3.77;66.03
70214;DHT22;60138;55.808;37.078;2023-02-01T11:15:20;3.79;66.14
70214;DHT22;60138;55.808;37.078;2023-02-01T11:17:49;3.80;66.36
70214;DHT22;60138;55.808;37.078;2023-02-01T11:22:57;3.73;65.82
70214;DHT22;60138;55.808;37.078;2023-02-01T11:25:24;3.65;66.11
70214;DHT22;60138;55.808;37.078;2023-02-01T11:28:12;3.61;66.17
70214;DHT22;60138;55.808;37.078;2023-02-01T11:30:44;3.64;66.10
70214;DHT22;60138;55.808;37.078;2023-02-01T11:33:20;3.65;66.14
70214;DHT22;60138;55.808;37.078;2023-02-01T11:47:27;3.50;66.35
70214;DHT22;60138;55.808;37.078;2023-02-01T11:49:58;3.50;66.25
70214;DHT22;60138;55.808;37.078;2023-02-01T11:55:35;3.43;65.98
70214;DHT22;60138;55.808;37.078;2023-02-01T12:09:42;3.28;66.50
70214;DHT22;60138;55.808;37.078;2023-02-01T12:12:28;3.21;66.43
70214;DHT22;60138;55.808;37.078;2023-02-01T12:18:06;3.19;66.76
70214;DHT22;60138;55.808;37.078;2023-02-01T12:23:21;3.20;66.69
70214;DHT22;60138;55.808;37.078;2023-02-01T12:39:45;3.04;67.32
70214;DHT22;60138;55.808;37.078;2023-02-01T12:42:19;3.06;67.41
70214;DHT22;60138;55.808;37.078;2023-02-01T12:45:14;3.05;67.39
70214;DHT22;60138;55.808;37.078;2023-02-01T12:47:44;3.03;67.43
70214;DHT22;60138;55.808;37.078;2023-02-01T12:55:50;2.89;67.49
70214;DHT22;60138;55.808;37.078;2023-02-01T12:58:30;2.85;67.64
70214;DHT22;60138;55.808;37.078;2023-02-01T13:01:17;2.80;67.55
70214;DHT22;60138;55.808;37.078;2023-02-01T13:06:52;2.69;67.63
70214;DHT22;60138;55.808;37.078;2023-02-01T13:12:16;2.67;67.65
70214;DHT22;60138;55.808;37.078;2023-02-01T13:17:47;2.69;67.59
70214;DHT22;60138;55.808;37.078;2023-02-01T13:23:31;2.64;67.68
70214;DHT22;60138;55.808;37.078;2023-02-01T13:26:01;2.60;67.52
70214;DHT22;60138;55.808;37.078;2023-02-01T13:28:49;2.58;67.69
70214;DHT22;60138;55.808;37.078;2023-02-01T13:43:28;2.53;67.75
70214;DHT22;60138;55.808;37.078;2023-02-01T13:45:37;2.51;67.80
70214;DHT22;60138;55.808;37.078;2023-02-01T13:48:19;2.49;67.89
70214;DHT22;60138;55.808;37.078;2023-02-01T13:50:51;2.46;67.91
70214;DHT22;60138;55.808;37.078;2023-02-01T13:53:32;2.44;67.93
70214;DHT22;60138;55.808;37.078;2023-02-01T13:56:06;2.44;68.01
70214;DHT22;60138;55.808;37.078;2023-02-01T13:58:38;2.43;68.05
70214;DHT22;60138;55.808;37.078;2023-02-01T14:03:59;2.44;68.07
70214;DHT22;60138;55.808;37.078;2023-02-01T14:09:19;2.44;68.02
70214;DHT22;60138;55.808;37.078;2023-02-01T14:11:54;2.42;68.04
70214;DHT22;60138;55.808;37.078;2023-02-01T14:19:38;2.37;68.24
70214;DHT22;60138;55.808;37.078;2023-02-01T14:24:54;2.31;68.71
70214;DHT22;60138;55.808;37.078;2023-02-01T14:27:33;2.30;68.97
70214;DHT22;60138;55.808;37.078;2023-02-01T14:30:05;2.31;69.19
70214;DHT22;60138;55.808;37.078;2023-02-01T14:32:37;2.28;69.36
70214;DHT22;60138;55.808;37.078;2023-02-01T14:35:12;2.28;69.34
70214;DHT22;60138;55.808;37.078;2023-02-01T14:37:43;2.23;69.42
70214;DHT22;60138;55.808;37.078;2023-02-01T14:42:53;2.23;69.37
70214;DHT22;60138;55.808;37.078;2023-02-01T14:50:32;2.22;69.29
70214;DHT22;60138;55.808;37.078;2023-02-01T15:07:05;2.19;68.99
70214;DHT22;60138;55.808;37.078;2023-02-01T15:09:45;2.17;69.05
70214;DHT22;60138;55.808;37.078;2023-02-01T15:15:02;2.16;68.81
70214;DHT22;60138;55.808;37.078;2023-02-01T15:17:36;2.17;68.81
70214;DHT22;60138;55.808;37.078;2023-02-01T15:20:19;2.16;68.70
70214;DHT22;60138;55.808;37.078;2023-02-01T15:25:33;2.12;68.78
70214;DHT22;60138;55.808;37.078;2023-02-01T15:27:59;2.11;68.75
70214;DHT22;60138;55.808;37.078;2023-02-01T15:30:27;2.13;68.78
70214;DHT22;60138;55.808;37.078;2023-02-01T15:35:41;2.09;68.72
70214;DHT22;60138;55.808;37.078;2023-02-01T15:43:28;2.03;68.84
70214;DHT22;60138;55.808;37.078;2023-02-01T15:46:08;2.03;68.97
70214;DHT22;60138;55.808;37.078;2023-02-01T15:48:47;2.02;69.23
70214;DHT22;60138;55.808;37.078;2023-02-01T15:51:21;1.99;69.68
70214;DHT22;60138;55.808;37.078;2023-02-01T15:54:04;1.97;70.07
70214;DHT22;60138;55.808;37.078;2023-02-01T15:56:36;1.87;70.35
70214;DHT22;60138;55.808;37.078;2023-02-01T15:59:13;1.80;70.79
70214;DHT22;60138;55.808;37.078;2023-02-01T16:01:43;1.78;71.09
70214;DHT22;60138;55.808;37.078;2023-02-01T16:04:46;1.77;71.06
70214;DHT22;60138;55.808;37.078;2023-02-01T16:08:00;1.78;70.96
70214;DHT22;60138;55.808;37.078;2023-02-01T16:13:43;1.80;70.67
70214;DHT22;60138;55.808;37.078;2023-02-01T16:16:16;1.80;70.47
70214;DHT22;60138;55.808;37.078;2023-02-01T16:18:45;1.80;70.30
70214;DHT22;60138;55.808;37.078;2023-02-01T16:21:20;1.77;70.16
70214;DHT22;60138;55.808;37.078;2023-02-01T16:23:52;1.79;70.13
70214;DHT22;60138;55.808;37.078;2023-02-01T16:26:20;1.78;69.94
70214;DHT22;60138;55.808;37.078;2023-02-01T16:28:49;1.77;69.87
70214;DHT22;60138;55.808;37.078;2023-02-01T16:31:21;1.79;69.83
70214;DHT22;60138;55.808;37.078;2023-02-01T16:33:50;1.80;69.78
70214;DHT22;60138;55.808;37.078;2023-02-01T16:36:17;1.81;69.62
70214;DHT22;60138;55.808;37.078;2023-02-01T16:38:46;1.80;69.60
70214;DHT22;60138;55.808;37.078;2023-02-01T16:41:13;1.80;69.52
70214;DHT22;60138;55.808;37.078;2023-02-01T16:43:51;1.81;69.49
70214;DHT22;60138;55.808;37.078;2023-02-01T16:46:22;1.82;69.44
70214;DHT22;60138;55.808;37.078;2023-02-01T16:48:56;1.83;69.42
70214;DHT22;60138;55.808;37.078;2023-02-01T16:51:24;1.82;69.29
70214;DHT22;60138;55.808;37.078;2023-02-01T16:53:55;1.83;69.30
70214;DHT22;60138;55.808;37.078;2023-02-01T16:56:32;1.82;69.25
70214;DHT22;60138;55.808;37.078;2023-02-01T16:59:14;1.83;69.14
70214;DHT22;60138;55.808;37.078;2023-02-01T17:02:02;1.82;69.07
70214;DHT22;60138;55.808;37.078;2023-02-01T17:04:54;1.81;68.85
70214;DHT22;60138;55.808;37.078;2023-02-01T17:07:32;1.82;68.91
70214;DHT22;60138;55.808;37.078;2023-02-01T17:10:00;1.81;68.78
70214;DHT22;60138;55.808;37.078;2023-02-01T17:12:31;1.79;68.88
70214;DHT22;60138;55.808;37.078;2023-02-01T17:14:59;1.80;68.89
70214;DHT22;60138;55.808;37.078;2023-02-01T17:17:36;1.79;68.95
70214;DHT22;60138;55.808;37.078;2023-02-01T17:20:05;1.78;68.90
70214;DHT22;60138;55.808;37.078;2023-02-01T17:22:31;1.76;68.80
70214;DHT22;60138;55.808;37.078;2023-02-01T17:25:06;1.77;68.81
70214;DHT22;60138;55.808;37.078;2023-02-01T17:27:33;1.75;68.78
70214;DHT22;60138;55.808;37.078;2023-02-01T17:29:58;1.75;68.78
70214;DHT22;60138;55.808;37.078;2023-02-01T17:32:25;1.73;68.76
70214;DHT22;60138;55.808;37.078;2023-02-01T17:34:58;1.72;68.78
70214;DHT22;60138;55.808;37.078;2023-02-01T17:37:33;1.73;68.86
70214;DHT22;60138;55.808;37.078;2023-02-01T17:40:04;1.71;68.76
70214;DHT22;60138;55.808;37.078;2023-02-01T17:42:32;1.73;68.84
70214;DHT22;60138;55.808;37.078;2023-02-01T17:47:41;1.72;68.74
70214;DHT22;60138;55.808;37.078;2023-02-01T17:50:15;1.73;68.77
70214;DHT22;60138;55.808;37.078;2023-02-01T17:52:43;1.75;68.75
70214;DHT22;60138;55.808;37.078;2023-02-01T17:55:26;1.73;68.71
70214;DHT22;60138;55.808;37.078;2023-02-01T17:58:15;1.73;68.65
70214;DHT22;60138;55.808;37.078;2023-02-01T18:00:41;1.72;68.68
70214;DHT22;60138;55.808;37.078;2023-02-01T18:03:21;1.72;68.67
70214;DHT22;60138;55.808;37.078;2023-02-01T18:06:43;1.66;68.69
70214;DHT22;60138;55.808;37.078;2023-02-01T18:09:14;1.64;68.84
70214;DHT22;60138;55.808;37.078;2023-02-01T18:12:22;1.64;68.84
70214;DHT22;60138;55.808;37.078;2023-02-01T18:14:48;1.64;68.89
70214;DHT22;60138;55.808;37.078;2023-02-01T18:17:16;1.65;68.90
70214;DHT22;60138;55.808;37.078;2023-02-01T18:19:47;1.64;68.81
70214;DHT22;60138;55.808;37.078;2023-02-01T18:22:16;1.65;68.88
70214;DHT22;60138;55.808;37.078;2023-02-01T18:24:45;1.65;68.84
70214;DHT22;60138;55.808;37.078;2023-02-01T18:27:13;1.65;68.64
70214;DHT22;60138;55.808;37.078;2023-02-01T18:29:39;1.61;68.61
70214;DHT22;60138;55.808;37.078;2023-02-01T18:32:05;1.61;68.46
70214;DHT22;60138;55.808;37.078;2023-02-01T18:34:33;1.61;68.57
70214;DHT22;60138;55.808;37.078;2023-02-01T18:37:11;1.61;68.71
70214;DHT22;60138;55.808;37.078;2023-02-01T18:39:49;1.56;68.74
70214;DHT22;60138;55.808;37.078;2023-02-01T18:42:15;1.54;68.83
70214;DHT22;60138;55.808;37.078;2023-02-01T18:44:46;1.54;68.87
70214;DHT22;60138;55.808;37.078;2023-02-01T18:47:16;1.55;68.93
70214;DHT22;60138;55.808;37.078;2023-02-01T18:49:49;1.53;68.97
70214;DHT22;60138;55.808;37.078;2023-02-01T18:52:35;1.54;69.09
70214;DHT22;60138;55.808;37.078;2023-02-01T18:55:04;1.54;69.16
70214;DHT22;60138;55.808;37.078;2023-02-01T18:57:32;1.55;69.34
70214;DHT22;60138;55.808;37.078;2023-02-01T18:59:58;1.58;69.37
70214;DHT22;60138;55.808;37.078;2023-02-01T19:02:33;1.57;69.40
70214;DHT22;60138;55.808;37.078;2023-02-01T19:04:59;1.54;69.35
70214;DHT22;60138;55.808;37.078;2023-02-01T19:07:24;1.54;69.39
70214;DHT22;60138;55.808;37.078;2023-02-01T19:09:53;1.53;69.41
70214;DHT22;60138;55.808;37.078;2023-02-01T19:12:19;1.54;69.44
70214;DHT22;60138;55.808;37.078;2023-02-01T19:14:47;1.53;69.49
70214;DHT22;60138;55.808;37.078;2023-02-01T19:17:23;1.49;69.48
70214;DHT22;60138;55.808;37.078;2023-02-01T19:20:07;1.50;69.58